Terminal Aerodrome Forecast
Issued by NWS Wakefield, VA

Home | Current Version | Previous Version | Text Only | Print | Product List | Glossary On
Versions: 1 2 3 4 5 6 7 8 9 10 11 12 13 14 15 16 17 18 19 20 21 22 23 24 25
000
FTUS41 KAKQ 290843 AAA
TAFSBY
TAF AMD
KSBY 290843Z 2909/3006 22009KT P6SM VCTS SCT040CB BKN250
      TEMPO 2909/2911 4SM TSRA BR BKN040CB
     FM291300 22012G18KT P6SM SCT050 BKN250
     FM300000 21008KT P6SM BKN080=

USA.gov is the U.S. government's official web portal to all federal, state and local government web resources and services.